Latest Coastal Weather Observations for Cape Flattery

IDQ60701

Issued at 3:12 am EST Wednesday 31 August 2016 (issued every 10 minutes, with the page automatically refreshed every 10 minutes)

About coastal observations | Map of coastal stations | Coastal observations for QLD | Marine services | Other Formats
Station Details ID: 031213 Name: CAPE FLATTERY Lat: -14.97 Lon: 145.31 Height: 18.5 m
Data from the previous 72 hours. | See also: Recent months at Cape Flattery
Date/Time
EST
Temp
°C
Wind Pressure Rain since
9am
mm
Weather Cloud Vis
km
Sea
Height
m
Swell
Dir  Spd
kts
Gust
kts
hPa Trend Height
m
Period
s
Dir
31/03:00am 23.9 ESE 12 17 1017.5 - 0.0 - - - - - - -
31/02:30am 24.0 SE 12 17 1017.5 - 0.0 - - - - - - -
31/02:00am 24.0 SE 12 17 1017.9 - 0.0 - - - - - - -
31/01:30am 24.2 ESE 15 21 1018.1 - 0.0 - - - - - - -
31/01:00am 23.6 SE 13 17 1018.4 - 0.0 - - - - - - -
31/12:30am 23.6 ESE 15 23 1018.8 - 0.0 - - - - - - -
31/12:00am 23.9 SE 13 17 1018.9 - 0.0 - - - - - - -
 
Date/Time
EST
Temp
°C
Wind Pressure Rain since
9am
mm
Weather Cloud Vis
km
Sea
Height
m
Swell
Dir  Spd
kts
Gust
kts
hPa Trend Height
m
Period
s
Dir
30/11:30pm 23.8 SE 13 19 1019.0 - 0.0 - - - - - - -
30/11:00pm 23.8 SE 12 17 1019.3 - 0.0 - - - - - - -
30/10:30pm 24.3 SE 15 21 1019.3 - 0.0 - - - - - - -
30/10:00pm 24.6 SE 16 21 1019.3 - 0.0 - - - - - - -
30/09:30pm 24.5 SE 16 21 1019.5 - 0.0 - - - - - - -
30/09:00pm 24.3 SE 15 21 1019.3 - 0.0 - - - - - - -
30/08:30pm 24.1 SSE 16 22 1019.3 - 0.0 - - - - - - -
30/08:00pm 23.9 SE 17 23 1019.2 - 0.0 - - - - - - -
30/07:30pm 23.9 SE 16 21 1018.9 - 0.0 - - - - - - -
30/07:00pm 24.1 SE 16 22 1018.4 - 0.0 - - - - - - -
30/06:30pm 24.1 SE 16 23 1018.1 - 0.0 - - - - - - -
30/06:00pm 24.4 SE 15 22 1017.9 - 0.0 - - - - - - -
30/05:30pm 25.0 SE 15 22 1017.7 - 0.0 - - - - - - -
30/05:00pm 25.6 SE 16 23 1017.6 - 0.0 - - - - - - -
30/04:30pm 26.3 SE 16 23 1017.5 - 0.0 - - - - - - -
30/04:00pm 26.7 SE 16 22 1017.1 - 0.0 - - - - - - -
30/03:30pm 27.2 SE 17 22 1017.1 - 0.0 - - - - - - -
30/03:00pm 26.8 SE 18 23 1017.4 - 0.0 - - - - - - -
30/02:30pm 27.0 SE 19 24 1017.5 - 0.0 - - - - - - -
30/02:00pm 27.5 SE 20 26 1017.9 - 0.0 - - - - - - -
30/01:30pm 27.5 SE 18 23 1018.2 - 0.0 - - - - - - -
30/01:00pm 27.8 SE 19 25 1018.3 - 0.0 - - - - - - -
30/12:30pm 28.7 SE 16 23 1018.7 - 0.0 - - - - - - -
30/12:00pm 28.1 SE 17 21 1019.0 - 0.0 - - - - - - -
30/11:30am 27.4 SE 17 22 1019.5 - 0.0 - - - - - - -
30/11:00am 27.6 SE 17 23 1019.7 - 0.0 - - - - - - -
30/10:30am 27.5 SE 15 22 1019.9 - 0.0 - - - - - - -
30/10:00am 26.8 SE 17 23 1020.1 - 0.0 - - - - - - -
30/09:30am 26.2 SE 14 20 1020.1 - 0.0 - - - - - - -
30/09:00am 26.0 SE 17 21 1019.9 - 0.0 - - - - - - -
30/08:30am 25.9 SE 15 20 1019.4 - 0.0 - - - - - - -
30/08:00am 24.4 SE 15 20 1019.0 - 0.0 - - - - - - -
30/07:30am 24.6 ESE 14 19 1018.5 - 0.0 - - - - - - -
30/07:00am 24.0 SE 14 18 1018.1 - 0.0 - - - - - - -
30/06:30am 23.7 SE 16 22 1017.6 - 0.0 - - - - - - -
30/06:00am 23.6 SE 14 21 1017.4 - 0.0 - - - - - - -
30/05:30am 23.3 SE 13 19 1017.0 - 0.0 - - - - - - -
30/05:00am 23.5 SE 15 22 1016.8 - 0.0 - - - - - - -
30/04:30am 23.7 SE 13 20 1016.7 - 0.0 - - - - - - -
30/04:00am 23.9 SE 15 21 1016.8 - 0.0 - - - - - - -
30/03:30am 24.0 SE 17 23 1016.7 - 0.0 - - - - - - -
30/03:00am 24.1 SE 15 20 1016.8 - 0.0 - - - - - - -
30/02:30am 24.1 ESE 13 18 1017.1 - 0.0 - - - - - - -
30/02:00am 23.9 SE 14 19 1017.2 - 0.0 - - - - - - -
30/01:30am 23.8 SE 13 17 1017.4 - 0.0 - - - - - - -
30/01:00am 23.6 SE 13 21 1017.6 - 0.0 - - - - - - -
30/12:30am 23.4 SE 15 21 1017.8 - 0.0 - - - - - - -
30/12:00am 24.1 SE 16 24 1018.0 - 0.0 - - - - - - -
 
Date/Time
EST
Temp
°C
Wind Pressure Rain since
9am
mm
Weather Cloud Vis
km
Sea
Height
m
Swell
Dir  Spd
kts
Gust
kts
hPa Trend Height
m
Period
s
Dir
29/11:45pm 23.8 SE 17 27 1018.1 - 0.0 - - - - - - -
29/11:30pm 24.1 SE 17 26 1018.1 - 0.0 - - - - - - -
29/11:13pm 24.2 SE 17 27 1018.1 - 0.0 - - - - - - -
29/11:00pm 24.2 SE 19 26 1018.0 - 0.0 - - - - - - -
29/10:34pm 24.2 SE 18 28 1018.0 - 0.0 - - - - - - -
29/10:30pm 24.2 SE 18 27 1018.0 - 0.0 - - - - - - -
29/10:09pm 24.2 SE 17 27 1018.2 - 0.0 - - - - - - -
29/10:00pm 24.2 SE 18 25 1018.2 - 0.0 - - - - - - -
29/09:30pm 23.4 SE 16 22 1018.1 - 0.0 - - - - - - -
29/09:00pm 24.2 SE 15 21 1018.2 - 0.0 - - - - - - -
29/08:30pm 24.3 SE 16 21 1018.2 - 0.0 - - - - - - -
29/08:00pm 24.2 SE 13 19 1018.0 - 0.0 - - - - - - -
29/07:30pm 24.1 SE 15 24 1017.8 - 0.0 - - - - - - -
29/07:00pm 24.0 SE 15 21 1017.5 - 0.0 - - - - - - -
29/06:30pm 24.2 SE 15 21 1017.3 - 0.0 - - - - - - -
29/06:00pm 24.3 SE 17 22 1017.0 - 0.0 - - - - - - -
29/05:30pm 24.7 SE 16 23 1017.0 - 0.0 - - - - - - -
29/05:00pm 25.0 SE 17 23 1016.8 - 0.0 - - - - - - -
29/04:30pm 25.9 SE 18 24 1016.7 - 0.0 - - - - - - -
29/04:00pm 26.1 SE 20 24 1016.5 - 0.0 - - - - - - -
29/03:30pm 26.4 SE 19 26 1016.4 - 0.0 - - - - - - -
29/03:00pm 26.6 SE 21 27 1016.6 - 0.0 - - - - - - -
29/02:30pm 26.7 SE 19 25 1016.8 - 0.0 - - - - - - -
29/02:00pm 26.5 SE 21 27 1016.9 - 0.0 - - - - - - -
29/01:30pm 27.2 SE 20 26 1017.2 - 0.0 - - - - - - -
29/01:00pm 27.2 SE 19 25 1017.4 - 0.0 - - - - - - -
29/12:30pm 27.7 SE 20 26 1017.6 - 0.0 - - - - - - -
29/12:00pm 27.4 SE 18 25 1018.0 - 0.0 - - - - - - -
29/11:30am 27.9 SE 19 25 1018.3 - 0.0 - - - - - - -
29/11:00am 26.8 SE 18 26 1018.7 - 0.0 - - - - - - -
29/10:30am 26.6 SE 18 25 1019.0 - 0.0 - - - - - - -
29/10:00am 26.3 SE 18 25 1019.1 - 0.0 - - - - - - -
29/09:30am 26.1 SE 19 25 1019.1 - 0.0 - - - - - - -
29/09:00am 25.6 SE 19 24 1019.0 - 0.0 - - - - - - -
29/08:30am 25.0 SE 20 26 1018.6 - 0.0 - - - - - - -
29/08:00am 23.9 SE 18 25 1018.5 - 0.0 - - - - - - -
29/07:30am 23.6 SE 18 25 1018.2 - 0.0 - - - - - - -
29/07:00am 23.2 SE 17 23 1017.8 - 0.0 - - - - - - -
29/06:30am 22.8 SE 15 22 1017.4 - 0.0 - - - - - - -
29/06:00am 22.7 SE 17 23 1017.0 - 0.0 - - - - - - -
29/05:30am 22.8 SE 18 25 1016.7 - 0.0 - - - - - - -
29/05:00am 22.5 SE 19 25 1016.4 - 0.0 - - - - - - -
29/04:30am 22.3 SE 18 25 1016.4 - 0.0 - - - - - - -
29/04:00am 22.4 SE 17 23 1016.4 - 0.0 - - - - - - -
29/03:32am 22.5 SE 18 28 1016.4 - 0.0 - - - - - - -
29/03:30am 22.4 SE 18 26 1016.4 - 0.0 - - - - - - -
29/03:00am 22.6 SE 18 26 1016.7 - 0.0 - - - - - - -
29/02:30am 22.7 SE 19 26 1017.0 - 0.0 - - - - - - -
29/02:14am 22.5 SE 15 25 1017.2 - 0.0 - - - - - - -
29/02:00am 22.3 SE 17 22 1017.3 - 0.0 - - - - - - -
29/01:30am 22.5 SE 18 24 1017.5 - 0.0 - - - - - - -
29/01:09am 22.4 SE 17 27 1017.7 - 0.0 - - - - - - -
29/01:00am 22.4 SE 18 23 1017.7 - 0.0 - - - - - - -
29/12:30am 22.4 SE 19 25 1017.9 - 0.0 - - - - - - -
29/12:00am 22.2 SE 17 23 1018.3 - 0.0 - - - - - - -
 
Date/Time
EST
Temp
°C
Wind Pressure Rain since
9am
mm
Weather Cloud Vis
km
Sea
Height
m
Swell
Dir  Spd
kts
Gust
kts
hPa Trend Height
m
Period
s
Dir
28/11:30pm 22.4 SE 20 27 1018.3 - 0.0 - - - - - - -
28/11:00pm 22.5 SE 19 24 1018.6 - 0.0 - - - - - - -
28/10:30pm 22.1 SE 17 23 1018.6 - 0.0 - - - - - - -
28/10:00pm 22.4 SE 18 24 1018.7 - 0.0 - - - - - - -
28/09:30pm 22.4 SE 18 25 1018.6 - 0.0 - - - - - - -
28/09:00pm 22.3 SE 19 26 1018.6 - 0.0 - - - - - - -
28/08:32pm 22.5 SE 19 29 1018.4 - 0.0 - - - - - - -
28/08:30pm 22.5 SE 18 25 1018.4 - 0.0 - - - - - - -
28/08:00pm 22.0 SE 19 26 1018.3 - 0.0 - - - - - - -
28/07:30pm 22.2 SE 20 27 1017.9 - 0.0 - - - - - - -
28/07:00pm 22.2 SE 19 25 1017.5 - 0.0 - - - - - - -
28/06:30pm 22.4 SSE 21 28 1017.0 - 0.0 - - - - - - -
28/06:00pm 22.5 SE 20 26 1016.8 - 0.0 - - - - - - -
28/05:30pm 23.1 SSE 20 26 1016.9 - 0.0 - - - - - - -
28/05:00pm 23.7 SE 20 26 1016.7 - 0.0 - - - - - - -
28/04:30pm 24.3 SE 20 28 1016.6 - 0.0 - - - - - - -
28/04:00pm 24.5 SE 21 27 1016.4 - 0.0 - - - - - - -
28/03:30pm 25.1 SE 21 27 1016.5 - 0.0 - - - - - - -
28/03:00pm 25.3 SE 21 27 1016.6 - 0.0 - - - - - - -
28/02:30pm 25.5 SE 21 28 1016.9 - 0.0 - - - - - - -
28/02:00pm 26.0 SE 19 28 1017.1 - 0.0 - - - - - - -
28/01:30pm 26.5 SSE 22 27 1017.6 - 0.0 - - - - - - -
28/01:00pm 26.9 SE 21 27 1018.0 - 0.0 - - - - - - -
28/12:30pm 25.7 SE 21 27 1018.6 - 0.0 - - - - - - -
28/12:00pm 26.3 SE 20 26 1018.9 - 0.0 - - - - - - -
28/11:30am 26.2 SE 20 29 1019.2 - 0.0 - - - - - - -
28/11:00am 26.2 SE 21 28 1019.6 - 0.0 - - - - - - -
28/10:30am 25.7 SE 22 30 1020.1 - 0.0 - - - - - - -
28/10:00am 25.6 SE 21 28 1020.2 - 0.0 - - - - - - -
28/09:30am 25.6 SE 21 31 1020.0 - 0.0 - - - - - - -
28/09:22am 25.1 SE 21 31 1019.9 - 0.0 - - - - - - -
28/09:00am 24.9 SSE 22 31 1019.8 - 0.0 - - - - - - -
28/08:30am 24.7 SE 21 29 1019.7 - 0.0 - - - - - - -
28/08:00am 24.0 SE 20 27 1019.4 - 0.0 - - - - - - -
28/07:30am 22.9 SE 21 28 1019.0 - 0.0 - - - - - - -
28/07:17am 23.2 SE 17 27 1018.8 - 0.0 - - - - - - -
28/07:00am 23.3 SE 16 23 1018.6 - 0.0 - - - - - - -
28/06:39am 23.0 SE 16 26 1018.2 - 0.0 - - - - - - -
28/06:30am 22.9 SE 17 22 1018.1 - 0.0 - - - - - - -
28/06:00am 23.0 SE 17 23 1017.7 - 0.0 - - - - - - -
28/05:30am 23.1 SE 16 21 1017.3 - 0.0 - - - - - - -
28/05:00am 23.1 SE 17 23 1016.9 - 0.0 - - - - - - -
28/04:30am 23.1 SE 15 19 1016.6 - 0.0 - - - - - - -
28/04:00am 23.1 SE 15 20 1016.6 - 0.0 - - - - - - -
28/03:30am 23.2 SE 15 21 1016.7 - 0.0 - - - - - - -

Other Formats:

Comma delimited format used in spreadsheet applications
http://www.bom.gov.au/fwo/IDQ60701/IDQ60701.94188.axf

JavaScript Object Notation format (JSON) in row-major order
http://www.bom.gov.au/fwo/IDQ60701/IDQ60701.94188.json